Latest Weather Observations for Cloncurry

IDQ60801

Issued at 10:12 pm EST Friday 15 November 2019 (issued every 10 minutes, with the page automatically refreshed every 10 minutes)

About weather observations | Map of weather stations | Latest weather observations for QLD | Other Formats
Station Details ID: 029141 Name: CLONCURRY AIRPORT Lat: -20.67 Lon: 140.50 Height: 186.0 m
Data from the previous 72 hours. | See also: Recent months at Cloncurry
Date/Time
EST
Temp
°C
App
Temp
°C
Dew
Point
°C
Rel
Hum
%
Delta-T
°C
Wind Press
QNH
hPa
Press
MSL
hPa
Rain since
9am
mm
Dir  Spd
km/h
Gust
km/h
Spd
kts
Gust
kts
15/10:00pm 26.0 20.6 -7.9 10 13.7 SSW 13 13 7 7 1012.3 1011.0 0.0
15/09:30pm 27.4 21.9 -9.7 8 14.7 SSW 13 15 7 8 1012.1 1010.8 0.0
15/09:00pm 28.7 22.8 -10.5 7 15.6 SSW 15 17 8 9 1011.6 1010.2 0.0
15/08:30pm 30.1 24.2 -9.4 7 16.2 SW 15 17 8 9 1011.2 1009.8 0.0
15/08:00pm 31.5 25.2 -10.4 6 17.1 SSW 17 22 9 12 1010.9 1009.5 0.0
15/07:30pm 32.2 26.3 -9.9 6 17.4 SSW 15 19 8 10 1010.5 1009.1 0.0
15/07:00pm 33.1 27.6 -9.2 6 17.9 SW 13 17 7 9 1010.1 1008.7 0.0
15/06:30pm 35.4 29.5 -9.9 5 19.3 SW 15 20 8 11 1009.8 1008.4 0.0
15/06:00pm 36.4 31.5 -12.0 4 20.1 SSW 9 19 5 10 1009.4 1008.0 0.0
15/05:30pm 36.8 31.1 -11.8 4 20.3 SW 13 20 7 11 1009.2 1007.8 0.0
15/05:00pm 36.7 31.4 -11.8 4 20.3 E 11 17 6 9 1008.9 1007.5 0.0
15/04:30pm 36.8 31.5 -11.8 4 20.3 NW 11 19 6 10 1009.0 1007.6 0.0
15/04:00pm 37.2 31.9 -11.5 4 20.6 NNW 11 19 6 10 1009.2 1007.8 0.0
15/03:30pm 36.7 30.7 -11.8 4 20.3 NNW 15 28 8 15 1009.4 1008.0 0.0
15/03:00pm 37.8 32.6 -11.1 4 20.9 WSW 11 20 6 11 1009.5 1008.1 0.0
15/02:30pm 36.1 30.4 -12.2 4 19.9 NW 13 19 7 10 1009.7 1008.3 0.0
15/02:00pm 36.5 31.4 -9.2 5 19.9 NW 11 28 6 15 1010.1 1008.7 0.0
15/01:30pm 35.3 30.9 -10.0 5 19.2 N 7 11 4 6 1010.6 1009.2 0.0
15/01:00pm 34.8 30.0 -10.3 5 19.0 SW 9 15 5 8 1011.1 1009.7 0.0
15/12:30pm 35.1 29.2 -10.1 5 19.1 SSW 15 24 8 13 1011.5 1010.1 0.0
15/12:00pm 33.8 28.4 -8.7 6 18.2 ESE 13 22 7 12 1011.9 1010.6 0.0
15/11:30am 33.6 28.2 -8.9 6 18.1 S 13 22 7 12 1012.4 1011.1 0.0
15/11:00am 32.8 27.3 -9.4 6 17.7 SSE 13 20 7 11 1012.8 1011.5 0.0
15/10:30am 33.0 26.6 -7.3 7 17.5 SSE 19 28 10 15 1013.2 1011.9 0.0
15/10:00am 31.6 24.1 -8.3 7 16.9 SSE 24 33 13 18 1013.7 1012.3 0.0
15/09:30am 30.9 23.4 -8.9 7 16.6 SE 24 32 13 17 1014.0 1012.6 0.0
15/09:00am 30.5 23.1 -7.4 8 16.1 SE 24 32 13 17 1014.1 1012.7 0.0
15/08:30am 29.4 23.4 -6.7 9 15.4 S 17 26 9 14 1013.8 1012.4 0.0
15/08:00am 26.6 21.0 -6.2 11 13.8 S 15 19 8 10 1013.8 1012.4 0.0
15/07:30am 23.9 18.2 -7.2 12 12.5 S 15 20 8 11 1013.6 1012.2 0.0
15/07:00am 21.4 16.6 -6.3 15 11.0 SSW 11 13 6 7 1013.4 1012.1 0.0
15/06:30am 18.8 14.2 -7.5 16 10.0 SSW 9 11 5 6 1013.1 1011.8 0.0
15/06:00am 18.0 13.4 -7.4 17 9.6 SSW 9 9 5 5 1012.8 1011.5 0.0
15/05:30am 18.7 14.1 -8.4 15 10.1 SSW 9 11 5 6 1012.4 1011.1 0.0
15/05:00am 19.7 14.7 -8.5 14 10.6 SSW 11 11 6 6 1012.0 1010.7 0.0
15/04:30am 20.1 14.6 -9.1 13 10.9 SSW 13 15 7 8 1011.7 1010.3 0.0
15/04:00am 20.7 15.2 -9.7 12 11.3 SSW 13 15 7 8 1011.6 1010.2 0.0
15/03:30am 21.4 15.6 -9.1 12 11.5 SSW 15 19 8 10 1011.4 1010.0 0.0
15/03:00am 21.6 15.3 -10.1 11 11.8 SSW 17 19 9 10 1011.5 1010.1 0.0
15/02:30am 21.5 15.6 -10.2 11 11.7 SSW 15 17 8 9 1011.4 1010.0 0.0
15/02:00am 21.3 15.5 -9.2 12 11.5 SSW 15 17 8 9 1011.4 1010.0 0.0
15/01:30am 21.7 15.8 -10.0 11 11.8 SSW 15 15 8 8 1011.6 1010.2 0.0
15/01:00am 22.0 16.4 -11.0 10 12.1 SSW 13 15 7 8 1011.8 1010.5 0.0
15/12:30am 22.3 16.3 -10.7 10 12.2 SSW 15 19 8 10 1011.9 1010.6 0.0
15/12:00am 22.4 16.8 -10.7 10 12.2 S 13 17 7 9 1012.1 1010.8 0.0
 
Date/Time
EST
Temp
°C
App
Temp
°C
Dew
Point
°C
Rel
Hum
%
Delta-T
°C
Wind Press
QNH
hPa
Press
MSL
hPa
Rain since
9am
mm
Dir  Spd
km/h
Gust
km/h
Spd
kts
Gust
kts
14/11:30pm 22.7 17.5 -10.4 10 12.3 SSW 11 13 6 7 1012.4 1011.1 0.0
14/11:00pm 23.1 17.5 -11.5 9 12.7 SSW 13 15 7 8 1012.4 1011.1 0.0
14/10:30pm 23.3 17.7 -11.3 9 12.8 S 13 15 7 8 1012.2 1010.9 0.0
14/10:00pm 24.5 18.9 -10.4 9 13.3 S 13 15 7 8 1012.2 1010.9 0.0
14/09:30pm 25.1 19.6 -10.0 9 13.5 SSW 13 13 7 7 1012.0 1010.7 0.0
14/09:00pm 25.6 20.0 -11.1 8 14.0 SSW 13 15 7 8 1011.7 1010.3 0.0
14/08:30pm 27.1 21.8 -11.6 7 14.8 SSW 11 13 6 7 1011.5 1010.1 0.0
14/08:00pm 28.5 22.9 -10.6 7 15.5 SSW 13 15 7 8 1011.2 1009.8 0.0
14/07:30pm 29.9 24.6 -11.5 6 16.3 SSW 11 13 6 7 1010.8 1009.4 0.0
14/07:00pm 32.0 25.9 -12.3 5 17.6 SSW 15 20 8 11 1010.4 1009.0 0.0
14/06:30pm 33.7 26.8 -11.1 5 18.4 SSW 20 30 11 16 1010.1 1008.7 0.0
14/06:00pm 34.6 26.8 -13.2 4 19.2 SSW 24 30 13 16 1009.9 1008.5 0.0
14/05:30pm 35.5 27.7 -12.6 4 19.6 SSW 24 32 13 17 1009.7 1008.3 0.0
14/05:00pm 35.6 27.8 -12.6 4 19.7 SSW 24 30 13 16 1009.8 1008.4 0.0
14/04:30pm 36.1 28.3 -12.2 4 19.9 SSW 24 32 13 17 1010.0 1008.6 0.0
14/04:00pm 35.8 29.7 -12.4 4 19.8 S 15 28 8 15 1010.3 1008.9 0.0
14/03:30pm 36.6 29.2 -11.9 4 20.2 SSE 22 32 12 17 1010.6 1009.2 0.0
14/03:00pm 36.0 29.2 -12.3 4 19.9 S 19 35 10 19 1011.0 1009.6 0.0
14/02:30pm 34.9 27.8 -13.0 4 19.3 S 20 33 11 18 1011.5 1010.1 0.0
14/02:00pm 34.5 27.8 -10.6 5 18.8 SSE 19 28 10 15 1012.0 1010.7 0.0
14/01:30pm 35.0 28.1 -13.0 4 19.4 S 19 30 10 16 1012.7 1011.4 0.0
14/01:00pm 34.5 27.6 -10.6 5 18.8 SSE 20 39 11 21 1013.1 1011.8 0.0
14/12:30pm 33.8 26.9 -11.0 5 18.5 SSE 20 33 11 18 1013.9 1012.5 0.0
14/12:00pm 32.9 26.1 -9.4 6 17.8 SSE 20 28 11 15 1014.4 1013.0 0.0
14/11:30am 31.8 23.9 -8.2 7 17.0 SSE 26 37 14 20 1015.0 1013.6 0.0
14/11:00am 31.5 24.4 -8.4 7 16.8 SSE 22 32 12 17 1015.5 1014.1 0.0
14/10:30am 30.9 23.5 -7.1 8 16.3 SSE 24 35 13 19 1015.9 1014.5 0.0
14/10:00am 29.7 20.7 -8.0 8 15.7 SE 32 37 17 20 1016.3 1014.9 0.0
14/09:30am 29.5 20.5 -8.2 8 15.7 SSE 32 41 17 22 1016.4 1015.0 0.0
14/09:00am 28.5 19.6 -7.4 9 15.0 SE 32 41 17 22 1016.5 1015.1 0.0
14/08:30am 27.1 17.1 -8.5 9 14.4 SE 37 46 20 25 1016.4 1015.0 0.0
14/08:00am 26.4 16.0 -9.0 9 14.1 SE 39 50 21 27 1016.4 1015.0 0.0
14/07:41am 26.3 17.2 -9.1 9 14.1 SSE 32 50 17 27 1016.3 1014.9 0.0
14/07:30am 26.0 18.4 -9.3 9 13.9 SSE 24 32 13 17 1016.2 1014.8 0.0
14/07:00am 24.6 19.5 -9.0 10 13.1 SSE 11 15 6 8 1015.9 1014.5 0.0
14/06:30am 23.2 17.7 -10.1 10 12.6 S 13 17 7 9 1015.3 1013.9 0.0
14/06:00am 23.1 17.2 -10.1 10 12.5 S 15 19 8 10 1014.7 1013.3 0.0
14/05:30am 24.0 17.2 -9.5 10 12.9 S 20 28 11 15 1014.2 1012.8 0.0
14/05:00am 24.5 17.7 -9.1 10 13.1 S 20 26 11 14 1013.6 1012.2 0.0
14/04:30am 24.8 17.7 -8.8 10 13.2 S 22 28 12 15 1013.2 1011.9 0.0
14/04:00am 25.2 17.6 -9.9 9 13.6 S 24 33 13 18 1013.0 1011.7 0.0
14/03:30am 25.6 18.0 -9.6 9 13.7 S 24 33 13 18 1012.9 1011.6 0.0
14/03:00am 25.9 18.7 -9.4 9 13.9 S 22 30 12 16 1012.9 1011.6 0.0
14/02:30am 26.2 18.9 -10.6 8 14.2 S 22 30 12 16 1012.7 1011.4 0.0
14/02:00am 26.8 19.2 -10.2 8 14.5 S 24 32 13 17 1012.7 1011.4 0.0
14/01:30am 27.1 20.3 -9.9 8 14.6 SSW 20 26 11 14 1013.0 1011.7 0.0
14/01:00am 27.6 20.8 -9.6 8 14.8 SSW 20 30 11 16 1013.6 1012.2 0.0
14/12:30am 28.1 20.5 -9.2 8 15.0 S 24 32 13 17 1013.7 1012.3 0.0
14/12:00am 28.6 20.7 -8.8 8 15.3 SSW 26 35 14 19 1013.8 1012.4 0.0
 
Date/Time
EST
Temp
°C
App
Temp
°C
Dew
Point
°C
Rel
Hum
%
Delta-T
°C
Wind Press
QNH
hPa
Press
MSL
hPa
Rain since
9am
mm
Dir  Spd
km/h
Gust
km/h
Spd
kts
Gust
kts
13/11:30pm 29.3 21.2 -6.8 9 15.4 SSW 28 35 15 19 1013.8 1012.4 0.0
13/11:00pm 29.9 21.8 -6.4 9 15.6 SSW 28 37 15 20 1013.7 1012.3 0.0
13/10:30pm 30.6 22.0 -4.4 10 15.7 SSW 32 43 17 23 1013.6 1012.2 0.0
13/10:00pm 31.6 22.1 -3.7 10 16.1 SSW 37 48 20 26 1013.1 1011.8 0.0
13/09:45pm 32.1 23.6 -3.3 10 16.4 SSW 32 50 17 27 1012.8 1011.5 0.0
13/09:30pm 32.3 24.6 -3.2 10 16.5 SSW 28 37 15 20 1012.4 1011.1 0.0
13/09:00pm 32.5 25.6 -3.0 10 16.5 SSW 24 30 13 16 1012.1 1010.8 0.0
13/08:30pm 33.1 26.2 -2.6 10 16.8 SSW 24 28 13 15 1011.7 1010.3 0.0
13/08:00pm 33.4 27.1 -3.7 9 17.2 SSW 20 28 11 15 1011.4 1010.0 0.0
13/07:30pm 34.5 27.0 -4.5 8 18.0 SSW 26 35 14 19 1010.9 1009.5 0.0
13/07:00pm 35.3 29.0 -3.9 8 18.4 SSW 20 28 11 15 1010.4 1009.0 0.0
13/06:30pm 36.5 29.4 -4.8 7 19.2 SSW 24 30 13 16 1010.1 1008.7 0.0
13/06:00pm 37.5 30.4 -4.1 7 19.8 SSW 24 32 13 17 1010.0 1008.6 0.0
13/05:30pm 38.2 31.4 -5.6 6 20.4 SSW 22 39 12 21 1009.7 1008.3 0.0
13/05:00pm 38.4 31.9 -5.5 6 20.5 SSW 20 30 11 16 1009.7 1008.3 0.0
13/04:30pm 39.0 32.0 -7.4 5 21.1 S 22 33 12 18 1009.7 1008.3 0.0
13/04:00pm 39.3 34.0 -7.2 5 21.3 SSW 13 24 7 13 1009.9 1008.5 0.0
13/03:30pm 39.7 32.3 -6.9 5 21.5 SSW 24 35 13 19 1010.1 1008.7 0.0
13/03:00pm 39.3 32.7 -7.2 5 21.3 S 20 32 11 17 1010.3 1008.9 0.0
13/02:30pm 38.7 32.2 -7.6 5 21.0 SSW 19 33 10 18 1010.6 1009.2 0.0
13/02:00pm 39.2 32.8 -4.9 6 20.9 S 20 35 11 19 1011.0 1009.6 0.0
13/01:30pm 38.5 32.8 -3.4 7 20.2 SSE 17 32 9 17 1011.6 1010.2 0.0
13/01:00pm 38.6 32.0 -3.3 7 20.3 SSW 22 39 12 21 1011.9 1010.6 0.0
13/12:30pm 37.9 31.8 -3.8 7 19.9 S 19 30 10 16 1012.4 1011.1 0.0
13/12:00pm 37.8 31.5 -3.9 7 19.9 SSE 20 33 11 18 1012.9 1011.6 0.0
13/11:30am 36.5 30.3 -3.0 8 18.9 S 20 32 11 17 1013.6 1012.2 0.0
13/11:00am 36.3 30.9 -1.6 9 18.5 SSE 17 28 9 15 1014.1 1012.7 0.0
13/10:30am 34.5 28.9 -0.2 11 17.2 SW 19 30 10 16 1014.4 1013.0 0.0
13/10:00am 32.9 27.1 -0.2 12 16.2 SSW 20 26 11 14 1014.6 1013.2 0.0
13/09:30am 31.4 24.7 -1.4 12 15.6 SSW 24 30 13 16 1014.8 1013.4 0.0
13/09:00am 30.1 23.2 -2.4 12 15.0 SSW 24 30 13 16 1014.8 1013.4 0.0
13/08:30am 29.3 22.5 -1.9 13 14.5 SSW 24 32 13 17 1015.0 1013.6 0.0
13/08:00am 28.3 21.4 -2.7 13 14.1 SSW 24 30 13 16 1014.8 1013.4 0.0
13/07:30am 26.6 21.0 -3.1 14 13.2 SSW 17 26 9 14 1014.5 1013.1 0.0
13/07:00am 24.1 20.3 -4.1 15 12.0 SSW 7 11 4 6 1014.4 1013.0 0.0
13/06:30am 22.6 18.7 -6.2 14 11.6 E 6 11 3 6 1014.1 1012.7 0.0
13/06:00am 20.3 14.9 -8.0 14 10.8 SSW 13 15 7 8 1013.4 1012.1 0.0
13/05:30am 21.7 16.0 -7.9 13 11.5 SSW 15 19 8 10 1013.0 1011.7 0.0
13/05:00am 21.7 16.7 -7.9 13 11.5 SSW 11 13 6 7 1012.6 1011.3 0.0
13/04:30am 22.1 16.7 -8.6 12 11.8 S 13 15 7 8 1012.5 1011.2 0.0
13/04:00am 22.2 16.4 -8.5 12 11.8 S 15 15 8 8 1012.3 1011.0 0.0
13/03:30am 24.1 18.0 -8.2 11 12.8 SSW 17 19 9 10 1012.2 1010.9 0.0
13/03:00am 23.8 17.7 -7.3 12 12.5 SSW 17 20 9 11 1011.8 1010.5 0.0
13/02:30am 24.0 19.2 -6.1 13 12.4 SW 11 13 6 7 1011.5 1010.1 0.0
13/02:00am 28.4 23.1 -7.5 9 15.0 SSE 13 15 7 8 1011.3 1009.9 0.0
13/01:44am 26.6 20.5 -4.0 13 13.4 ESE 19 32 10 17 1011.5 1010.1 0.0
13/01:30am 21.6 17.9 2.3 28 9.1 SW 11 13 6 7 1011.2 1009.8 0.0
13/01:00am 23.5 20.4 1.2 23 10.5 SW 7 9 4 5 1011.3 1009.9 0.0
13/12:30am 24.7 23.0 1.6 22 11.0 CALM 0 0 0 0 1011.7 1010.3 0.0
13/12:00am 26.5 23.9 1.0 19 12.2 SW 4 11 2 6 1012.0 1010.7 0.0
 
Date/Time
EST
Temp
°C
App
Temp
°C
Dew
Point
°C
Rel
Hum
%
Delta-T
°C
Wind Press
QNH
hPa
Press
MSL
hPa
Rain since
9am
mm
Dir  Spd
km/h
Gust
km/h
Spd
kts
Gust
kts
12/11:30pm 28.4 25.4 1.8 18 13.1 S 7 11 4 6 1012.1 1010.8 0.0
12/11:00pm 28.5 25.2 2.7 19 12.9 S 9 13 5 7 1012.1 1010.8 0.0
12/10:30pm 26.0 22.5 3.3 23 11.3 NW 11 26 6 14 1011.8 1010.5 0.0

Other formats

Comma delimited format used in spreadsheet applications
http://www.bom.gov.au/fwo/IDQ60801/IDQ60801.94335.axf

JavaScript Object Notation format (JSON) in row-major order
http://www.bom.gov.au/fwo/IDQ60801/IDQ60801.94335.json

Data quality

Most of these data are generated automatically and are frequently updated. Quality checks on data are not normally performed. It is possible for incorrect values to appear. Refer to information at About Latest Weather Observations and please check the disclaimer before using these data.